Terminal Aerodrome Forecast
Issued by NWS

Home | Current Version | Previous Version | Text Only | Print | Product List | Glossary On
Versions: 1 2 3 4 5 6 7 8 9 10 11 12 13 14
000
FTUS45 KGJT 010532
TAFMTJ
TAF
KMTJ 010532Z 0106/0206 12011KT P6SM SCT150
     FM011700 34008KT P6SM SCT100 BKN150
     FM012000 35008KT P6SM SCT070 BKN150
     FM020300 14012KT P6SM VCSH BKN060 OVC100=

USA.gov is the U.S. government's official web portal to all federal, state and local government web resources and services.